Time;durP1;ratioP1;P1;durP2;ratioP2;P2;SDS_P1;SDS_P2;PMS_P1;PMS_P2;Temp;Humidity;BMP_temperature;BMP_pressure;BME280_temperature;BME280_humidity;BME280_pressure;Samples;Min_cycle;Max_cycle;Signal;HPM_P1;HPM_P2
2022/08/27 00:00:43;;;;;;;14.65;9.23;;;21.20;99.90;;;;;;4994535;28;20613;-69
2022/08/27 00:03:09;;;;;;;11.35;9.85;;;21.20;99.90;;;;;;4995449;28;20257;-69
2022/08/27 00:05:35;;;;;;;9.60;8.60;;;21.20;99.90;;;;;;4994431;28;20205;-69
2022/08/27 00:08:03;;;;;;;11.07;8.40;;;21.20;99.90;;;;;;4994676;28;20610;-69
2022/08/27 00:10:29;;;;;;;10.57;9.05;;;21.20;99.90;;;;;;4994110;28;20206;-69
2022/08/27 00:12:55;;;;;;;9.70;8.68;;;21.10;99.90;;;;;;4994619;28;20744;-69
2022/08/27 00:15:22;;;;;;;11.15;8.75;;;21.20;99.90;;;;;;4993707;28;20235;-69
2022/08/27 00:17:47;;;;;;;14.35;10.80;;;21.20;99.90;;;;;;4994567;28;20206;-69
2022/08/27 00:20:19;;;;;;;11.10;8.38;;;21.20;99.90;;;;;;4994157;28;20622;-70
2022/08/27 00:22:45;;;;;;;15.70;10.48;;;21.20;99.90;;;;;;4994118;28;20224;-69
2022/08/27 00:25:11;;;;;;;12.35;10.25;;;21.10;99.90;;;;;;4994171;28;20210;-70
2022/08/27 00:27:37;;;;;;;13.02;9.52;;;21.10;99.90;;;;;;4994305;28;20218;-70
2022/08/27 00:30:06;;;;;;;15.95;9.63;;;21.10;99.90;;;;;;4993107;28;20595;-70
2022/08/27 00:32:32;;;;;;;17.60;12.10;;;21.10;99.90;;;;;;4992235;28;20249;-69
2022/08/27 00:34:57;;;;;;;14.00;12.50;;;21.10;99.90;;;;;;4994128;28;20820;-69
2022/08/27 00:37:23;;;;;;;14.10;10.85;;;21.10;99.90;;;;;;4993974;28;20590;-70
2022/08/27 00:39:48;;;;;;;10.68;9.57;;;21.10;99.90;;;;;;4994669;28;20663;-70
2022/08/27 00:42:14;;;;;;;11.32;9.63;;;21.20;99.90;;;;;;4994537;28;20288;-70
2022/08/27 00:44:40;;;;;;;12.70;11.43;;;21.20;99.90;;;;;;4993872;28;20206;-69
2022/08/27 00:47:12;;;;;;;13.90;9.90;;;21.20;99.90;;;;;;4994109;28;20281;-70
2022/08/27 00:49:44;;;;;;;13.30;10.43;;;21.20;99.90;;;;;;4992608;28;20622;-70
2022/08/27 00:52:26;;;;;;;13.07;10.38;;;21.10;99.90;;;;;;4992867;28;20217;-70
2022/08/27 00:54:58;;;;;;;13.23;10.43;;;21.10;99.90;;;;;;4995264;28;20173;-69
2022/08/27 00:57:25;;;;;;;16.08;10.68;;;21.10;99.90;;;;;;4994176;28;20545;-70
2022/08/27 00:59:51;;;;;;;15.52;10.63;;;21.10;99.90;;;;;;4993543;28;20232;-69
2022/08/27 01:02:17;;;;;;;14.52;10.57;;;21.10;99.90;;;;;;4992304;28;20249;-69
2022/08/27 01:04:53;;;;;;;15.82;13.40;;;21.10;99.90;;;;;;4993195;28;20206;-69
2022/08/27 01:07:19;;;;;;;19.98;14.82;;;21.10;99.90;;;;;;4993776;28;20631;-70
2022/08/27 01:09:47;;;;;;;16.38;13.48;;;21.10;99.90;;;;;;4993081;28;20196;-69
2022/08/27 01:12:13;;;;;;;16.52;12.80;;;21.10;99.90;;;;;;4993983;28;20229;-70
2022/08/27 01:14:40;;;;;;;15.45;10.95;;;21.10;99.90;;;;;;4993337;28;20209;-70
2022/08/27 01:17:07;;;;;;;12.30;10.48;;;21.10;99.90;;;;;;4993616;28;20236;-70
2022/08/27 01:19:43;;;;;;;11.40;10.20;;;21.10;99.90;;;;;;4993154;28;20210;-70
2022/08/27 01:22:27;;;;;;;12.20;10.07;;;21.10;99.90;;;;;;4989729;28;20249;-70
2022/08/27 01:24:59;;;;;;;16.77;10.85;;;21.10;99.90;;;;;;5007763;28;20182;-70
2022/08/27 01:27:27;;;;;;;16.83;12.88;;;21.20;99.90;;;;;;4991194;28;20186;-70
2022/08/27 01:29:54;;;;;;;16.58;12.05;;;21.10;99.90;;;;;;4992615;28;20252;-70
2022/08/27 01:32:27;;;;;;;11.90;10.70;;;21.10;99.90;;;;;;4991770;28;20309;-69
2022/08/27 01:34:53;;;;;;;14.15;10.05;;;21.10;99.90;;;;;;4992952;28;20206;-69
2022/08/27 01:37:20;;;;;;;12.70;10.80;;;21.20;99.90;;;;;;4993051;28;20360;-69
2022/08/27 01:39:46;;;;;;;17.50;12.43;;;21.20;99.90;;;;;;4992625;28;20253;-70
2022/08/27 01:42:19;;;;;;;13.48;10.68;;;21.20;99.90;;;;;;4993175;28;20248;-70
2022/08/27 01:44:44;;;;;;;17.08;11.18;;;21.30;99.90;;;;;;4992729;28;20229;-70
2022/08/27 01:47:10;;;;;;;18.33;11.57;;;21.20;99.90;;;;;;4992934;28;20226;-69
2022/08/27 01:49:35;;;;;;;15.48;11.57;;;21.20;99.90;;;;;;4992302;28;20209;-70
2022/08/27 01:52:01;;;;;;;18.83;12.50;;;21.30;99.90;;;;;;4993052;28;20770;-69
2022/08/27 01:54:27;;;;;;;18.55;13.35;;;21.20;99.90;;;;;;4992762;28;20177;-69
2022/08/27 01:56:52;;;;;;;18.38;13.15;;;21.20;99.90;;;;;;4992670;28;20212;-69
2022/08/27 01:59:18;;;;;;;18.10;12.52;;;21.20;99.90;;;;;;4992437;28;20205;-70
2022/08/27 02:01:43;;;;;;;18.17;13.95;;;21.10;99.90;;;;;;4992316;28;20210;-69
2022/08/27 02:04:09;;;;;;;21.20;13.73;;;21.20;99.90;;;;;;4992057;28;20209;-68
2022/08/27 02:06:34;;;;;;;21.67;14.07;;;21.20;99.90;;;;;;4992308;28;20180;-70
2022/08/27 02:09:00;;;;;;;18.80;13.68;;;21.20;99.90;;;;;;4992549;28;20190;-70
2022/08/27 02:11:26;;;;;;;20.13;14.90;;;21.20;99.90;;;;;;4999443;28;20212;-69
2022/08/27 02:13:51;;;;;;;18.90;14.02;;;21.20;99.90;;;;;;4992415;28;20202;-69
2022/08/27 02:16:17;;;;;;;20.25;13.27;;;21.20;99.90;;;;;;4981290;28;20201;-70
2022/08/27 02:18:42;;;;;;;19.42;14.20;;;21.20;99.90;;;;;;4991629;28;20182;-70
2022/08/27 02:21:09;;;;;;;19.45;14.50;;;21.20;99.90;;;;;;4992727;28;20201;-70
2022/08/27 02:23:35;;;;;;;20.65;16.30;;;21.20;99.90;;;;;;4990265;28;20288;-70
2022/08/27 02:26:01;;;;;;;22.92;14.43;;;21.20;99.90;;;;;;4992210;28;20206;-70
2022/08/27 02:28:26;;;;;;;19.10;15.07;;;21.20;99.90;;;;;;4991770;28;20212;-69
2022/08/27 02:30:52;;;;;;;30.73;16.50;;;21.20;99.90;;;;;;4991591;28;20267;-69
2022/08/27 02:33:17;;;;;;;19.67;14.90;;;21.20;99.90;;;;;;4992336;28;20185;-70
2022/08/27 02:35:43;;;;;;;20.92;15.52;;;21.20;99.90;;;;;;4991637;28;20686;-70
2022/08/27 02:38:11;;;;;;;18.25;14.95;;;21.20;99.90;;;;;;4978888;28;20675;-70
2022/08/27 02:40:36;;;;;;;21.45;15.30;;;21.20;99.90;;;;;;4971734;28;20276;-69
2022/08/27 02:43:02;;;;;;;20.95;15.00;;;21.20;99.90;;;;;;4972399;28;20750;-70
2022/08/27 02:45:28;;;;;;;27.75;16.23;;;21.20;99.90;;;;;;4972223;28;20182;-68
2022/08/27 02:47:54;;;;;;;18.85;15.40;;;21.20;99.90;;;;;;4965852;28;20214;-69
2022/08/27 02:50:20;;;;;;;19.88;15.27;;;21.20;99.90;;;;;;4971768;28;20679;-69
2022/08/27 02:52:46;;;;;;;23.55;15.38;;;21.30;99.90;;;;;;4971928;28;20687;-70
2022/08/27 02:55:13;;;;;;;25.15;16.52;;;21.20;99.90;;;;;;4977000;28;20296;-70
2022/08/27 02:57:38;;;;;;;21.52;16.23;;;21.30;99.90;;;;;;4989917;28;20226;-70
2022/08/27 03:00:07;;;;;;;21.10;16.92;;;21.30;99.90;;;;;;4991284;28;20174;-69
2022/08/27 03:02:33;;;;;;;28.02;16.77;;;21.30;99.90;;;;;;4991025;28;20221;-69
2022/08/27 03:04:58;;;;;;;21.52;16.52;;;21.30;99.90;;;;;;4991280;28;20252;-69
2022/08/27 03:07:24;;;;;;;25.00;18.92;;;21.20;99.90;;;;;;4991046;28;20210;-70
2022/08/27 03:09:50;;;;;;;23.40;17.95;;;21.20;99.90;;;;;;4989009;28;20221;-69
2022/08/27 03:12:16;;;;;;;28.67;20.42;;;21.20;99.90;;;;;;4972134;28;20557;-70
2022/08/27 03:14:42;;;;;;;26.73;20.17;;;21.20;99.90;;;;;;4995192;28;20263;-70
2022/08/27 03:19:52;;;;;;;26.92;20.77;;;21.10;99.90;;;;;;4977656;28;20224;-70
2022/08/27 03:22:17;;;;;;;28.92;19.52;;;21.10;99.90;;;;;;4977355;28;20296;-70
2022/08/27 03:24:43;;;;;;;33.17;19.85;;;21.00;99.90;;;;;;4990787;28;20192;-70
2022/08/27 03:27:08;;;;;;;32.00;20.83;;;21.00;99.90;;;;;;4991470;28;20690;-69
2022/08/27 03:29:34;;;;;;;30.70;20.77;;;21.00;99.90;;;;;;4989299;28;20205;-70
2022/08/27 03:32:00;;;;;;;31.65;20.48;;;21.00;99.90;;;;;;4979268;28;20653;-70
2022/08/27 03:34:26;;;;;;;31.05;20.35;;;21.10;99.90;;;;;;4968654;28;20206;-69
2022/08/27 03:36:51;;;;;;;29.88;19.05;;;21.10;99.90;;;;;;4971544;28;20663;-70
2022/08/27 03:39:17;;;;;;;35.53;21.17;;;21.00;99.90;;;;;;4971699;28;20171;-69
2022/08/27 03:41:43;;;;;;;38.22;21.15;;;21.00;99.90;;;;;;4980610;28;20318;-69
2022/08/27 03:44:08;;;;;;;32.13;21.55;;;20.90;99.90;;;;;;4980816;28;20748;-69
2022/08/27 03:46:34;;;;;;;34.40;21.50;;;20.90;99.90;;;;;;4983617;28;20198;-70
2022/08/27 03:48:59;;;;;;;28.55;18.88;;;20.90;99.90;;;;;;4989182;28;20218;-68
2022/08/27 03:51:25;;;;;;;27.23;18.05;;;21.00;99.90;;;;;;4990931;28;20197;-68
2022/08/27 03:53:50;;;;;;;26.63;19.08;;;21.00;99.90;;;;;;4990931;28;20206;-70
2022/08/27 03:56:16;;;;;;;29.60;20.05;;;20.90;99.90;;;;;;4975798;28;20214;-70
2022/08/27 03:58:41;;;;;;;28.25;19.30;;;20.90;99.90;;;;;;4970747;28;20305;-70
2022/08/27 04:01:07;;;;;;;25.08;19.48;;;20.90;99.90;;;;;;4969944;28;20696;-69
2022/08/27 04:03:34;;;;;;;27.38;19.35;;;20.90;99.90;;;;;;4971590;28;20227;-70
2022/08/27 04:06:00;;;;;;;25.05;18.48;;;20.80;99.90;;;;;;4990772;28;20210;-70
2022/08/27 04:08:26;;;;;;;30.58;20.90;;;20.80;99.90;;;;;;4986165;28;20690;-70
2022/08/27 04:10:53;;;;;;;26.40;19.25;;;20.80;99.90;;;;;;4980090;28;20210;-70
2022/08/27 04:13:20;;;;;;;24.58;18.83;;;20.80;99.90;;;;;;4977431;28;20209;-70
2022/08/27 04:15:47;;;;;;;28.58;19.33;;;20.80;99.90;;;;;;4986573;28;20207;-70
2022/08/27 04:18:15;;;;;;;31.05;16.92;;;20.90;99.90;;;;;;4990859;28;20170;-69
2022/08/27 04:20:45;;;;;;;24.90;18.10;;;20.90;99.90;;;;;;4973352;28;20241;-70
2022/08/27 04:23:10;;;;;;;26.38;17.98;;;20.90;99.90;;;;;;4971011;28;20285;-70
2022/08/27 04:25:41;;;;;;;30.35;19.95;;;20.80;99.90;;;;;;4977886;28;20297;-70
2022/08/27 04:28:07;;;;;;;28.38;18.17;;;20.80;99.90;;;;;;4987189;28;20206;-70
2022/08/27 04:30:32;;;;;;;29.02;18.67;;;20.90;99.90;;;;;;4974721;28;20179;-70
2022/08/27 04:32:58;;;;;;;27.17;19.75;;;20.80;99.90;;;;;;4997044;23;20259;-67
2022/08/27 04:35:24;;;;;;;25.98;17.83;;;20.80;99.90;;;;;;4993984;28;20213;-67
2022/08/27 04:37:50;;;;;;;32.05;20.60;;;20.80;99.90;;;;;;4994289;28;20218;-67
2022/08/27 04:40:15;;;;;;;27.55;20.02;;;20.80;99.90;;;;;;4993694;28;20217;-67
2022/08/27 04:42:41;;;;;;;28.50;19.33;;;20.70;99.90;;;;;;4993125;28;20746;-67
2022/08/27 04:45:07;;;;;;;28.23;18.85;;;20.70;99.90;;;;;;4993241;28;20166;-67
2022/08/27 04:47:33;;;;;;;28.67;20.13;;;20.70;99.90;;;;;;4981324;28;20213;-67
2022/08/27 04:49:59;;;;;;;24.52;18.45;;;20.70;99.90;;;;;;4990508;28;20834;-66
2022/08/27 04:52:25;;;;;;;28.48;19.58;;;20.80;99.90;;;;;;4992027;28;20312;-68
2022/08/27 04:54:50;;;;;;;30.33;20.08;;;20.90;99.90;;;;;;4984785;28;20198;-67
2022/08/27 04:57:16;;;;;;;28.40;18.63;;;20.80;99.90;;;;;;4989880;28;20655;-68
2022/08/27 04:59:42;;;;;;;27.45;18.85;;;20.80;99.90;;;;;;4990238;28;20210;-68
2022/08/27 05:02:09;;;;;;;24.88;17.98;;;20.80;99.90;;;;;;4989879;28;20215;-68
2022/08/27 05:04:38;;;;;;;24.52;17.70;;;20.90;99.90;;;;;;4986182;28;20208;-68
2022/08/27 05:07:03;;;;;;;26.38;18.65;;;20.90;99.90;;;;;;4986920;28;20225;-68
2022/08/27 05:09:29;;;;;;;28.88;19.30;;;20.90;99.90;;;;;;4991670;28;20214;-68
2022/08/27 05:11:55;;;;;;;26.80;17.60;;;20.80;99.90;;;;;;4984732;28;20269;-67
2022/08/27 05:14:22;;;;;;;25.98;18.35;;;20.90;99.90;;;;;;4988868;28;20209;-67
2022/08/27 05:16:47;;;;;;;25.83;17.73;;;20.90;99.90;;;;;;4990499;28;20301;-68
2022/08/27 05:19:13;;;;;;;27.15;18.13;;;20.90;99.90;;;;;;4989618;28;20297;-67
2022/08/27 05:21:44;;;;;;;24.83;17.50;;;20.90;99.90;;;;;;4984883;28;20202;-68
2022/08/27 05:24:10;;;;;;;27.30;18.27;;;20.90;99.90;;;;;;4990900;28;20170;-68
2022/08/27 05:26:36;;;;;;;22.65;16.17;;;21.00;99.90;;;;;;4991892;28;20215;-67
2022/08/27 05:29:03;;;;;;;24.23;15.95;;;21.00;99.90;;;;;;4986704;28;20272;-69
2022/08/27 05:31:29;;;;;;;24.05;16.65;;;21.00;99.90;;;;;;4987534;28;20297;-69
2022/08/27 05:33:55;;;;;;;23.30;16.35;;;21.00;99.90;;;;;;4990598;28;20308;-68
2022/08/27 05:36:28;;;;;;;22.60;17.17;;;21.00;99.90;;;;;;4989359;28;20174;-68
2022/08/27 05:38:55;;;;;;;20.48;15.45;;;21.10;99.90;;;;;;4984808;28;20233;-69
2022/08/27 05:41:26;;;;;;;20.60;15.23;;;21.10;99.90;;;;;;4989693;28;20268;-68
2022/08/27 05:43:52;;;;;;;21.65;15.38;;;21.10;99.90;;;;;;4992182;28;20213;-68
2022/08/27 05:46:21;;;;;;;22.15;15.70;;;21.10;99.90;;;;;;4987010;28;20206;-67
2022/08/27 05:48:47;;;;;;;17.80;14.27;;;21.10;99.90;;;;;;4986416;28;20209;-67
2022/08/27 05:51:22;;;;;;;19.85;14.13;;;21.10;99.90;;;;;;4984482;28;20801;-68
2022/08/27 05:53:47;;;;;;;16.75;13.32;;;21.10;99.90;;;;;;4985857;28;20244;-67
2022/08/27 05:56:19;;;;;;;17.63;14.40;;;21.20;99.90;;;;;;4987573;28;20237;-67
2022/08/27 06:01:33;;;;;;;17.67;13.60;;;21.20;99.90;;;;;;4988482;28;20228;-67
2022/08/27 06:03:59;;;;;;;14.52;11.63;;;21.30;99.90;;;;;;4983799;28;20214;-67
2022/08/27 06:06:24;;;;;;;14.63;11.50;;;21.40;99.90;;;;;;4988426;28;20544;-67
2022/08/27 06:08:52;;;;;;;14.95;12.25;;;21.40;99.90;;;;;;4990389;28;20235;-67
2022/08/27 06:11:18;;;;;;;13.60;11.40;;;21.40;99.90;;;;;;4994464;28;20643;-68
2022/08/27 06:13:45;;;;;;;12.57;11.23;;;21.40;99.90;;;;;;4984870;28;20261;-69
2022/08/27 06:16:14;;;;;;;14.82;11.50;;;21.40;99.90;;;;;;4989852;28;20788;-67
2022/08/27 06:18:42;;;;;;;16.08;12.30;;;21.40;99.90;;;;;;4988558;28;20209;-69
2022/08/27 06:21:08;;;;;;;14.63;12.35;;;21.40;99.90;;;;;;4986209;28;20202;-67
2022/08/27 06:23:35;;;;;;;18.27;12.63;;;21.30;99.90;;;;;;4983701;28;20214;-67
2022/08/27 06:26:04;;;;;;;13.52;11.98;;;21.30;99.90;;;;;;4990829;28;20300;-67
2022/08/27 06:28:30;;;;;;;15.98;11.65;;;21.30;99.90;;;;;;4987016;28;20233;-67
2022/08/27 06:31:23;;;;;;;13.70;11.10;;;21.30;99.90;;;;;;4985900;28;20724;-68
2022/08/27 06:33:50;;;;;;;14.57;10.70;;;21.30;99.90;;;;;;4987909;28;20630;-68
2022/08/27 06:36:20;;;;;;;12.52;9.52;;;21.40;99.90;;;;;;4988374;28;20550;-68
2022/08/27 06:38:46;;;;;;;11.60;9.32;;;21.50;99.90;;;;;;4982953;28;20216;-68
2022/08/27 06:41:13;;;;;;;10.48;9.18;;;21.50;99.90;;;;;;4988175;28;20304;-68
2022/08/27 06:43:40;;;;;;;14.25;9.45;;;21.60;99.90;;;;;;4989781;28;20214;-68
2022/08/27 06:46:09;;;;;;;13.25;9.27;;;21.60;99.90;;;;;;4985439;28;20236;-68
2022/08/27 06:48:35;;;;;;;13.70;9.18;;;21.60;99.90;;;;;;4984618;28;20186;-68
2022/08/27 06:51:11;;;;;;;12.02;9.02;;;21.50;99.90;;;;;;4990117;28;20185;-68
2022/08/27 06:53:37;;;;;;;10.52;8.68;;;21.60;99.90;;;;;;4987498;28;20213;-68
2022/08/27 06:56:04;;;;;;;10.77;8.57;;;21.60;99.90;;;;;;4985550;28;20264;-68
2022/08/27 06:58:30;;;;;;;10.77;8.85;;;21.60;99.90;;;;;;4986635;28;20217;-68
2022/08/27 07:00:55;;;;;;;9.48;7.57;;;21.50;99.90;;;;;;4990490;28;20210;-67
2022/08/27 07:03:21;;;;;;;10.93;8.30;;;21.50;99.90;;;;;;4986715;28;20220;-67
2022/08/27 07:05:47;;;;;;;9.80;7.63;;;21.50;99.90;;;;;;4985017;28;20296;-68
2022/08/27 07:08:12;;;;;;;14.05;11.27;;;21.50;99.90;;;;;;4988661;28;20206;-68
2022/08/27 07:10:38;;;;;;;9.25;7.75;;;21.60;99.90;;;;;;4984472;28;20209;-68
2022/08/27 07:13:04;;;;;;;10.70;7.65;;;21.50;99.90;;;;;;4984914;28;20229;-68
2022/08/27 07:15:31;;;;;;;9.65;7.68;;;21.50;99.90;;;;;;4978695;28;20178;-68
2022/08/27 07:17:57;;;;;;;10.35;7.65;;;21.50;99.90;;;;;;4990182;28;20614;-68
2022/08/27 07:20:24;;;;;;;9.60;7.85;;;21.60;99.90;;;;;;4992618;28;20749;-67
2022/08/27 07:22:51;;;;;;;9.57;7.75;;;21.60;99.90;;;;;;4994647;28;20226;-67
2022/08/27 07:25:19;;;;;;;10.40;7.40;;;21.60;99.90;;;;;;4990259;28;20307;-67
2022/08/27 07:27:46;;;;;;;10.68;8.40;;;21.70;99.90;;;;;;4987430;28;20628;-66
2022/08/27 07:30:14;;;;;;;14.52;11.18;;;21.70;99.90;;;;;;4982533;28;20199;-67
2022/08/27 07:32:40;;;;;;;14.63;10.07;;;21.70;99.90;;;;;;4985799;28;20218;-67
2022/08/27 07:35:08;;;;;;;18.80;12.65;;;21.60;99.90;;;;;;4989910;28;20280;-67
2022/08/27 07:37:34;;;;;;;11.48;9.18;;;21.60;99.90;;;;;;4982273;28;20218;-67
2022/08/27 07:40:01;;;;;;;13.23;9.23;;;21.60;99.90;;;;;;4985858;28;20248;-67
2022/08/27 07:45:12;;;;;;;12.88;8.23;;;21.70;99.90;;;;;;5007256;28;20211;-67
2022/08/27 07:47:38;;;;;;;9.57;8.43;;;21.80;99.90;;;;;;5002141;28;20212;-67
2022/08/27 07:50:04;;;;;;;11.38;8.88;;;21.70;99.90;;;;;;5005549;28;20248;-68
2022/08/27 07:52:30;;;;;;;11.18;7.85;;;21.70;99.90;;;;;;5007043;28;20216;-67
2022/08/27 07:54:56;;;;;;;15.50;8.65;;;21.70;99.90;;;;;;5001008;28;20309;-68
2022/08/27 07:57:21;;;;;;;13.20;9.55;;;21.70;99.90;;;;;;5005954;28;20181;-67
2022/08/27 07:59:47;;;;;;;12.50;8.77;;;21.70;99.90;;;;;;5006878;28;20205;-68
2022/08/27 08:02:14;;;;;;;10.57;8.77;;;21.80;99.90;;;;;;5006966;28;20208;-67
2022/08/27 08:04:39;;;;;;;15.15;9.57;;;21.80;99.90;;;;;;5005212;28;20215;-68
2022/08/27 08:07:05;;;;;;;12.23;9.10;;;21.90;99.90;;;;;;5010265;28;20204;-67
2022/08/27 08:09:31;;;;;;;13.07;9.25;;;22.10;99.90;;;;;;5010238;28;20173;-68
2022/08/27 08:11:57;;;;;;;11.77;9.25;;;22.10;99.90;;;;;;5004689;28;20240;-67
2022/08/27 08:14:22;;;;;;;15.57;10.63;;;22.10;99.90;;;;;;5008863;28;20701;-67
2022/08/27 08:16:48;;;;;;;11.15;9.95;;;22.10;99.90;;;;;;5010615;28;20220;-67
2022/08/27 08:19:14;;;;;;;15.80;11.75;;;22.00;99.90;;;;;;5009798;28;20295;-67
2022/08/27 08:21:40;;;;;;;13.57;9.75;;;22.10;99.90;;;;;;5005406;28;20219;-71
2022/08/27 08:24:06;;;;;;;12.30;9.55;;;22.00;99.90;;;;;;5011285;28;20201;-67
2022/08/27 08:26:32;;;;;;;13.52;9.55;;;22.10;99.90;;;;;;5012939;28;20716;-68
2022/08/27 08:28:59;;;;;;;13.60;9.35;;;22.20;99.90;;;;;;5002054;28;20233;-67
2022/08/27 08:31:26;;;;;;;11.43;9.32;;;22.20;99.90;;;;;;5008173;28;20217;-68
2022/08/27 08:33:52;;;;;;;11.80;9.05;;;22.30;99.90;;;;;;5010442;28;20257;-68
2022/08/27 08:36:18;;;;;;;14.15;9.80;;;22.30;99.90;;;;;;5010179;28;20216;-67
2022/08/27 08:38:46;;;;;;;14.40;9.98;;;22.40;99.90;;;;;;5004745;28;20237;-67
2022/08/27 08:41:38;;;;;;;13.65;8.55;;;22.40;99.90;;;;;;5005395;28;20213;-67
2022/08/27 08:44:37;;;;;;;13.10;9.13;;;22.50;99.90;;;;;;5010348;28;20569;-67
2022/08/27 08:47:23;;;;;;;12.25;9.05;;;22.70;99.90;;;;;;5002326;28;20344;-67
2022/08/27 08:49:49;;;;;;;10.10;8.93;;;22.60;99.90;;;;;;5006941;28;20220;-67
2022/08/27 08:52:31;;;;;;;11.80;9.13;;;22.60;99.90;;;;;;5011985;28;20209;-67
2022/08/27 08:55:22;;;;;;;13.30;9.88;;;22.70;99.90;;;;;;5008226;28;20225;-67
2022/08/27 08:58:06;;;;;;;10.38;8.85;;;22.70;99.90;;;;;;5007734;28;20181;-67
2022/08/27 09:00:32;;;;;;;12.85;9.00;;;22.60;99.90;;;;;;5002076;28;20265;-69
2022/08/27 09:02:58;;;;;;;12.63;11.32;;;22.70;99.90;;;;;;5006488;28;20317;-68
2022/08/27 09:05:24;;;;;;;12.30;8.60;;;22.70;99.90;;;;;;5007668;28;20224;-68
2022/08/27 09:07:53;;;;;;;12.82;8.57;;;22.60;99.90;;;;;;5009430;28;20212;-68
2022/08/27 09:10:28;;;;;;;10.80;8.60;;;22.60;99.90;;;;;;5012525;28;20205;-69
2022/08/27 09:12:59;;;;;;;13.70;10.45;;;22.60;99.90;;;;;;5004537;28;20243;-67
2022/08/27 09:15:29;;;;;;;11.15;7.95;;;22.60;99.90;;;;;;5008183;28;20209;-67
2022/08/27 09:18:13;;;;;;;11.98;8.82;;;22.60;99.90;;;;;;5007865;28;20205;-68
2022/08/27 09:20:41;;;;;;;9.73;7.97;;;22.60;99.90;;;;;;5002884;28;20207;-68
2022/08/27 09:23:21;;;;;;;10.95;9.18;;;22.70;99.90;;;;;;5004181;28;20221;-67
2022/08/27 09:25:47;;;;;;;13.43;8.80;;;22.60;99.90;;;;;;5009990;28;20307;-68
2022/08/27 09:31:06;;;;;;;17.25;12.80;;;22.60;99.90;;;;;;5007386;28;20645;-68
2022/08/27 09:33:32;;;;;;;11.95;8.60;;;22.70;99.90;;;;;;5021779;28;20610;-68
2022/08/27 09:36:02;;;;;;;11.80;9.35;;;22.70;99.90;;;;;;5007560;28;20297;-68
2022/08/27 09:38:31;;;;;;;8.95;7.82;;;22.90;99.90;;;;;;5003828;28;20701;-68
2022/08/27 09:41:24;;;;;;;8.57;7.68;;;23.00;99.90;;;;;;5005882;28;20299;-68
2022/08/27 09:43:57;;;;;;;8.98;7.93;;;23.60;99.90;;;;;;5011111;28;20209;-67
2022/08/27 09:46:24;;;;;;;11.07;8.05;;;24.20;99.90;;;;;;5005047;28;20311;-68
2022/08/27 09:48:51;;;;;;;10.32;7.80;;;24.80;99.90;;;;;;5006201;28;20256;-68
2022/08/27 09:51:20;;;;;;;7.72;6.63;;;25.00;99.90;;;;;;5010813;28;20215;-67
2022/08/27 09:53:58;;;;;;;8.20;6.47;;;25.00;99.90;;;;;;5004472;28;20221;-67
2022/08/27 09:56:31;;;;;;;11.30;6.57;;;24.80;99.90;;;;;;5006006;28;20292;-68
2022/08/27 09:59:23;;;;;;;9.13;7.20;;;24.60;99.90;;;;;;5008484;28;20224;-67
2022/08/27 10:01:49;;;;;;;7.82;6.97;;;24.40;99.90;;;;;;5006753;28;20706;-68
2022/08/27 10:04:22;;;;;;;9.27;7.07;;;24.40;99.90;;;;;;5005091;28;20205;-67
2022/08/27 10:06:50;;;;;;;15.38;7.80;;;24.40;99.90;;;;;;5002372;28;20214;-68
2022/08/27 10:09:29;;;;;;;10.50;7.47;;;24.30;99.90;;;;;;5010227;28;20706;-68
2022/08/27 10:12:16;;;;;;;11.98;7.38;;;24.10;99.90;;;;;;5002194;28;20268;-68
2022/08/27 10:14:48;;;;;;;9.50;7.80;;;24.40;99.90;;;;;;5004101;28;20205;-68
2022/08/27 10:17:33;;;;;;;13.32;7.28;;;24.60;99.90;;;;;;5009371;28;20209;-68
2022/08/27 10:20:33;;;;;;;7.35;6.15;;;24.90;99.90;;;;;;5004108;28;20218;-68
2022/08/27 10:23:17;;;;;;;10.02;6.97;;;25.10;99.90;;;;;;5005946;28;20252;-68
2022/08/27 10:25:53;;;;;;;9.90;6.88;;;25.10;99.90;;;;;;5023145;28;20209;-67
2022/08/27 10:28:53;;;;;;;11.52;7.72;;;25.40;99.90;;;;;;5002453;28;20204;-67
2022/08/27 10:31:57;;;;;;;10.55;7.03;;;25.40;99.90;;;;;;5001179;28;20205;-68
2022/08/27 10:34:54;;;;;;;8.38;6.18;;;25.30;99.90;;;;;;5008379;28;20585;-68
2022/08/27 10:37:29;;;;;;;11.85;5.97;;;25.10;99.90;;;;;;5021251;23;20227;-70
2022/08/27 10:40:14;;;;;;;8.90;6.53;;;24.90;99.90;;;;;;5009044;28;20220;-69
2022/08/27 10:42:52;;;;;;;10.25;8.10;;;24.90;99.90;;;;;;5010158;28;20304;-70
2022/08/27 10:45:44;;;;;;;9.13;7.03;;;24.70;99.90;;;;;;5011634;28;20225;-70
2022/08/27 10:48:27;;;;;;;10.55;6.75;;;24.60;99.90;;;;;;5016189;28;20213;-69
2022/08/27 10:50:59;;;;;;;8.00;5.93;;;24.50;99.90;;;;;;5007599;28;20215;-71
2022/08/27 10:53:27;;;;;;;8.80;7.43;;;24.40;99.90;;;;;;5005028;28;20247;-72
2022/08/27 10:56:12;;;;;;;8.68;7.22;;;24.40;99.90;;;;;;5000876;28;20303;-72
2022/08/27 10:58:53;;;;;;;9.35;6.60;;;24.40;99.90;;;;;;4998882;28;20213;-71
2022/08/27 11:01:38;;;;;;;7.45;5.82;;;24.40;99.90;;;;;;5003658;28;20216;-72
2022/08/27 11:04:13;;;;;;;8.55;5.38;;;24.40;99.90;;;;;;5004858;28;20581;-71
2022/08/27 11:06:44;;;;;;;7.28;5.63;;;24.40;99.90;;;;;;5005753;28;20200;-74
2022/08/27 11:09:12;;;;;;;6.70;5.50;;;24.40;99.90;;;;;;5009276;28;20193;-70
2022/08/27 11:11:52;;;;;;;8.35;5.60;;;24.30;99.90;;;;;;5004302;28;20304;-71
2022/08/27 11:14:30;;;;;;;8.85;4.82;;;24.30;99.90;;;;;;5003871;28;20669;-71
2022/08/27 11:17:08;;;;;;;5.75;5.15;;;24.30;99.90;;;;;;5007709;28;20212;-71
2022/08/27 11:19:50;;;;;;;12.05;5.35;;;24.30;99.90;;;;;;5008476;28;20225;-70
2022/08/27 11:22:26;;;;;;;10.65;7.25;;;24.10;99.90;;;;;;5007051;28;20270;-71
2022/08/27 11:25:32;;;;;;;7.65;4.80;;;24.20;99.90;;;;;;5009220;28;20192;-73
2022/08/27 11:27:59;;;;;;;5.68;5.10;;;24.20;99.90;;;;;;4996430;28;20206;-72
2022/08/27 11:30:47;;;;;;;5.47;4.97;;;24.30;99.90;;;;;;5009610;28;20227;-72
2022/08/27 11:33:29;;;;;;;7.30;4.60;;;24.40;99.90;;;;;;5007946;28;20209;-72
2022/08/27 11:36:12;;;;;;;6.78;5.43;;;24.40;99.90;;;;;;5002987;28;20268;-72
2022/08/27 11:38:49;;;;;;;10.05;5.35;;;24.30;99.90;;;;;;5002472;28;20220;-72
2022/08/27 11:41:50;;;;;;;11.70;8.50;;;24.40;99.90;;;;;;5005073;28;20692;-72
2022/08/27 11:44:21;;;;;;;7.72;6.57;;;24.20;99.90;;;;;;5001674;28;20267;-72
2022/08/27 11:46:50;;;;;;;9.18;7.28;;;24.10;99.90;;;;;;5002472;28;20216;-72
2022/08/27 11:49:56;;;;;;;7.85;7.05;;;23.90;99.90;;;;;;5004628;28;20201;-71
2022/08/27 11:52:33;;;;;;;11.57;7.80;;;23.80;99.90;;;;;;5001704;28;20570;-71
2022/08/27 11:55:09;;;;;;;12.98;6.82;;;23.70;99.90;;;;;;5008251;28;20212;-73
2022/08/27 11:57:35;;;;;;;8.48;6.85;;;23.70;99.90;;;;;;5001617;28;20279;-71
2022/08/27 12:00:41;;;;;;;11.52;7.03;;;23.70;99.90;;;;;;5010660;28;20642;-70
2022/08/27 12:03:21;;;;;;;13.10;7.25;;;23.70;99.90;;;;;;5001936;28;20228;-71
2022/08/27 12:06:17;;;;;;;10.40;8.82;;;23.80;99.90;;;;;;5003595;28;20251;-73
2022/08/27 12:08:43;;;;;;;16.40;13.30;;;23.90;99.90;;;;;;5007343;28;20208;-72
2022/08/27 12:11:11;;;;;;;9.95;8.05;;;23.90;99.90;;;;;;5008204;28;20217;-71
2022/08/27 12:13:51;;;;;;;10.52;7.93;;;23.90;99.90;;;;;;5003661;28;20216;-71
2022/08/27 12:16:46;;;;;;;8.68;6.85;;;24.00;99.90;;;;;;5009623;28;20224;-71
2022/08/27 12:19:36;;;;;;;8.70;7.13;;;24.10;99.90;;;;;;5003383;28;20212;-73
2022/08/27 12:22:04;;;;;;;8.00;6.90;;;24.10;99.90;;;;;;5003726;28;20868;-71
2022/08/27 12:24:42;;;;;;;7.22;6.40;;;24.30;99.90;;;;;;5005987;28;20560;-71
2022/08/27 12:27:27;;;;;;;10.57;7.85;;;24.40;99.90;;;;;;5009785;28;20212;-69
2022/08/27 12:29:57;;;;;;;9.95;7.72;;;24.60;99.90;;;;;;5001571;28;20240;-71
2022/08/27 12:32:39;;;;;;;8.25;6.20;;;25.00;99.90;;;;;;5001827;28;20209;-71
2022/08/27 12:35:15;;;;;;;13.25;5.68;;;25.30;99.90;;;;;;5006225;28;20664;-71
2022/08/27 12:37:54;;;;;;;10.00;8.10;;;25.40;99.90;;;;;;5002470;28;20267;-71
2022/08/27 12:40:23;;;;;;;8.98;6.97;;;25.60;99.90;;;;;;5003385;28;20331;-71
2022/08/27 12:42:50;;;;;;;7.75;6.72;;;25.60;99.90;;;;;;5007030;28;20682;-71
2022/08/27 12:45:22;;;;;;;9.45;6.95;;;25.80;99.90;;;;;;5007534;28;20182;-72
2022/08/27 12:47:48;;;;;;;7.55;6.00;;;25.90;99.90;;;;;;5002337;28;20206;-71
2022/08/27 12:50:20;;;;;;;9.38;6.80;;;25.90;99.90;;;;;;5009936;28;20216;-71
2022/08/27 12:53:33;;;;;;;10.20;7.68;;;25.90;99.90;;;;;;5011999;28;20233;-71
2022/08/27 12:56:36;;;;;;;8.27;7.35;;;25.90;99.90;;;;;;4999848;28;20209;-71
2022/08/27 12:59:06;;;;;;;9.85;6.97;;;26.10;99.90;;;;;;4999500;28;20287;-71
2022/08/27 13:02:01;;;;;;;8.38;6.70;;;25.90;99.90;;;;;;5010255;28;20216;-71